sensor_id;sensor_type;location;lat;lon;timestamp;pressure;altitude;pressure_sealevel;temperature;humidity
3428;BME280;1727;42.624;23.406;2023-02-15T00:01:32;96053.06;;;3.47;87.28
3428;BME280;1727;42.624;23.406;2023-02-15T00:03:59;96059.31;;;3.41;87.21
3428;BME280;1727;42.624;23.406;2023-02-15T00:06:26;96063.66;;;3.41;87.70
3428;BME280;1727;42.624;23.406;2023-02-15T00:08:53;96065.00;;;3.51;87.66
3428;BME280;1727;42.624;23.406;2023-02-15T00:11:22;96059.19;;;3.45;86.79
3428;BME280;1727;42.624;23.406;2023-02-15T00:14:03;96067.81;;;3.45;87.67
3428;BME280;1727;42.624;23.406;2023-02-15T00:16:31;96068.72;;;3.44;87.92
3428;BME280;1727;42.624;23.406;2023-02-15T00:18:58;96073.19;;;3.40;87.91
3428;BME280;1727;42.624;23.406;2023-02-15T00:21:27;96084.59;;;3.36;88.03
3428;BME280;1727;42.624;23.406;2023-02-15T00:23:55;96084.41;;;3.41;88.20
3428;BME280;1727;42.624;23.406;2023-02-15T00:26:30;96074.16;;;3.38;87.79
3428;BME280;1727;42.624;23.406;2023-02-15T00:28:58;96074.22;;;3.36;87.44
3428;BME280;1727;42.624;23.406;2023-02-15T00:31:25;96073.53;;;3.31;88.70
3428;BME280;1727;42.624;23.406;2023-02-15T00:33:52;96073.47;;;3.33;88.13
3428;BME280;1727;42.624;23.406;2023-02-15T00:36:19;96077.03;;;3.30;89.06
3428;BME280;1727;42.624;23.406;2023-02-15T00:38:46;96080.06;;;3.41;88.99
3428;BME280;1727;42.624;23.406;2023-02-15T00:41:13;96077.53;;;3.40;88.48
3428;BME280;1727;42.624;23.406;2023-02-15T00:43:41;96077.66;;;3.37;88.30
3428;BME280;1727;42.624;23.406;2023-02-15T00:46:08;96088.09;;;3.35;88.32
3428;BME280;1727;42.624;23.406;2023-02-15T00:48:34;96085.53;;;3.34;87.75
3428;BME280;1727;42.624;23.406;2023-02-15T00:51:01;96077.75;;;3.34;88.57
3428;BME280;1727;42.624;23.406;2023-02-15T00:53:28;96078.00;;;3.28;88.63
3428;BME280;1727;42.624;23.406;2023-02-15T00:55:55;96071.44;;;3.18;88.76
3428;BME280;1727;42.624;23.406;2023-02-15T00:58:22;96072.09;;;3.24;89.22
3428;BME280;1727;42.624;23.406;2023-02-15T01:00:51;96069.81;;;3.15;89.23
3428;BME280;1727;42.624;23.406;2023-02-15T01:03:19;96074.22;;;3.13;90.16
3428;BME280;1727;42.624;23.406;2023-02-15T01:05:47;96065.31;;;3.20;88.96
3428;BME280;1727;42.624;23.406;2023-02-15T01:08:15;96061.19;;;3.15;89.75
3428;BME280;1727;42.624;23.406;2023-02-15T01:10:42;96069.75;;;3.17;89.88
3428;BME280;1727;42.624;23.406;2023-02-15T01:13:17;96069.25;;;3.07;89.63
3428;BME280;1727;42.624;23.406;2023-02-15T01:15:44;96063.34;;;3.03;90.40
3428;BME280;1727;42.624;23.406;2023-02-15T01:18:12;96056.91;;;2.90;90.81
3428;BME280;1727;42.624;23.406;2023-02-15T01:20:39;96052.41;;;2.95;90.23
3428;BME280;1727;42.624;23.406;2023-02-15T01:23:07;96061.25;;;2.90;91.15
3428;BME280;1727;42.624;23.406;2023-02-15T01:25:35;96056.09;;;2.88;90.75
3428;BME280;1727;42.624;23.406;2023-02-15T01:28:02;96049.16;;;2.90;91.29
3428;BME280;1727;42.624;23.406;2023-02-15T01:30:29;96050.13;;;2.86;91.29
3428;BME280;1727;42.624;23.406;2023-02-15T01:32:56;96043.25;;;2.85;90.55
3428;BME280;1727;42.624;23.406;2023-02-15T01:35:25;96047.66;;;2.83;92.23
3428;BME280;1727;42.624;23.406;2023-02-15T01:37:51;96045.59;;;2.93;92.20
3428;BME280;1727;42.624;23.406;2023-02-15T01:40:18;96042.28;;;2.89;91.33
3428;BME280;1727;42.624;23.406;2023-02-15T01:42:45;96044.94;;;2.86;91.45
3428;BME280;1727;42.624;23.406;2023-02-15T01:45:21;96040.47;;;2.91;91.84
3428;BME280;1727;42.624;23.406;2023-02-15T01:47:52;96041.44;;;2.87;92.22
3428;BME280;1727;42.624;23.406;2023-02-15T01:50:28;96039.72;;;2.88;92.42
3428;BME280;1727;42.624;23.406;2023-02-15T01:53:01;96034.50;;;2.89;91.78
3428;BME280;1727;42.624;23.406;2023-02-15T01:55:33;96035.44;;;2.87;92.50
3428;BME280;1727;42.624;23.406;2023-02-15T01:58:10;96041.56;;;2.84;92.68
3428;BME280;1727;42.624;23.406;2023-02-15T02:00:37;96035.44;;;2.87;91.88
3428;BME280;1727;42.624;23.406;2023-02-15T02:03:14;96033.69;;;2.87;91.94
3428;BME280;1727;42.624;23.406;2023-02-15T02:05:42;96035.44;;;2.87;92.00
3428;BME280;1727;42.624;23.406;2023-02-15T02:08:09;96034.56;;;2.86;92.33
3428;BME280;1727;42.624;23.406;2023-02-15T02:10:36;96045.84;;;2.85;91.94
3428;BME280;1727;42.624;23.406;2023-02-15T02:13:05;96044.88;;;2.89;91.74
3428;BME280;1727;42.624;23.406;2023-02-15T02:15:43;96040.59;;;2.87;91.86
3428;BME280;1727;42.624;23.406;2023-02-15T02:18:31;96044.00;;;2.89;91.74
3428;BME280;1727;42.624;23.406;2023-02-15T02:21:17;96042.84;;;2.97;91.85
3428;BME280;1727;42.624;23.406;2023-02-15T02:24:18;96053.81;;;3.04;92.33
3428;BME280;1727;42.624;23.406;2023-02-15T02:27:09;96055.97;;;2.93;91.71
3428;BME280;1727;42.624;23.406;2023-02-15T02:30:15;96055.19;;;2.91;92.83
3428;BME280;1727;42.624;23.406;2023-02-15T02:33:18;96053.63;;;2.85;92.98
3428;BME280;1727;42.624;23.406;2023-02-15T02:35:53;96064.16;;;2.80;93.31
3428;BME280;1727;42.624;23.406;2023-02-15T02:38:27;96056.38;;;2.80;93.34
3428;BME280;1727;42.624;23.406;2023-02-15T02:41:00;96058.19;;;2.78;93.05
3428;BME280;1727;42.624;23.406;2023-02-15T02:43:35;96047.72;;;2.82;92.85
3428;BME280;1727;42.624;23.406;2023-02-15T02:46:07;96051.94;;;2.84;93.45
3428;BME280;1727;42.624;23.406;2023-02-15T02:48:38;96046.63;;;2.87;93.30
3428;BME280;1727;42.624;23.406;2023-02-15T02:51:05;96050.78;;;2.93;92.98
3428;BME280;1727;42.624;23.406;2023-02-15T02:53:32;96043.13;;;2.88;92.94
3428;BME280;1727;42.624;23.406;2023-02-15T02:56:05;96055.00;;;2.95;93.22
3428;BME280;1727;42.624;23.406;2023-02-15T02:58:36;96053.38;;;2.93;93.05
3428;BME280;1727;42.624;23.406;2023-02-15T03:01:09;96057.81;;;2.89;93.04
3428;BME280;1727;42.624;23.406;2023-02-15T03:03:43;96057.22;;;2.81;93.21
3428;BME280;1727;42.624;23.406;2023-02-15T03:06:15;96063.16;;;2.85;93.14
3428;BME280;1727;42.624;23.406;2023-02-15T03:08:51;96066.63;;;2.84;93.27
3428;BME280;1727;42.624;23.406;2023-02-15T03:11:20;96071.03;;;2.82;94.16
3428;BME280;1727;42.624;23.406;2023-02-15T03:13:48;96069.41;;;2.79;94.18
3428;BME280;1727;42.624;23.406;2023-02-15T03:16:17;96076.91;;;2.87;94.70
3428;BME280;1727;42.624;23.406;2023-02-15T03:18:55;96084.59;;;2.90;94.71
3428;BME280;1727;42.624;23.406;2023-02-15T03:21:28;96077.66;;;2.90;93.16
3428;BME280;1727;42.624;23.406;2023-02-15T03:24:04;96072.47;;;2.90;93.26
3428;BME280;1727;42.624;23.406;2023-02-15T03:26:34;96069.78;;;2.93;93.26
3428;BME280;1727;42.624;23.406;2023-02-15T03:29:04;96071.50;;;2.93;93.02
3428;BME280;1727;42.624;23.406;2023-02-15T03:31:38;96063.88;;;2.88;93.79
3428;BME280;1727;42.624;23.406;2023-02-15T03:34:10;96060.34;;;2.91;93.86
3428;BME280;1727;42.624;23.406;2023-02-15T03:36:43;96067.28;;;2.90;93.57
3428;BME280;1727;42.624;23.406;2023-02-15T03:39:18;96071.28;;;2.99;93.88
3428;BME280;1727;42.624;23.406;2023-02-15T03:41:51;96064.31;;;3.01;93.67
3428;BME280;1727;42.624;23.406;2023-02-15T03:44:26;96066.84;;;3.02;93.56
3428;BME280;1727;42.624;23.406;2023-02-15T03:47:00;96065.94;;;3.03;93.01
3428;BME280;1727;42.624;23.406;2023-02-15T03:49:36;96071.06;;;3.05;93.49
3428;BME280;1727;42.624;23.406;2023-02-15T03:52:06;96069.38;;;3.04;94.01
3428;BME280;1727;42.624;23.406;2023-02-15T03:54:34;96071.97;;;3.04;94.58
3428;BME280;1727;42.624;23.406;2023-02-15T03:57:17;96072.75;;;3.06;93.59
3428;BME280;1727;42.624;23.406;2023-02-15T04:00:05;96082.16;;;3.08;93.15
3428;BME280;1727;42.624;23.406;2023-02-15T04:03:05;96077.31;;;2.99;93.30
3428;BME280;1727;42.624;23.406;2023-02-15T04:05:35;96080.59;;;3.04;93.39
3428;BME280;1727;42.624;23.406;2023-02-15T04:08:02;96072.81;;;3.04;93.04
3428;BME280;1727;42.624;23.406;2023-02-15T04:10:29;96074.50;;;3.05;92.48
3428;BME280;1727;42.624;23.406;2023-02-15T04:13:13;96084.75;;;3.08;92.99
3428;BME280;1727;42.624;23.406;2023-02-15T04:15:40;96088.94;;;3.13;93.07
3428;BME280;1727;42.624;23.406;2023-02-15T04:18:24;96095.50;;;3.23;93.38
3428;BME280;1727;42.624;23.406;2023-02-15T04:21:09;96098.88;;;3.25;93.06
3428;BME280;1727;42.624;23.406;2023-02-15T04:23:54;96091.63;;;3.33;93.08
3428;BME280;1727;42.624;23.406;2023-02-15T04:26:38;96095.25;;;3.29;93.02
3428;BME280;1727;42.624;23.406;2023-02-15T04:29:04;96098.75;;;3.28;92.87
3428;BME280;1727;42.624;23.406;2023-02-15T04:31:31;96105.00;;;3.22;92.95
3428;BME280;1727;42.624;23.406;2023-02-15T04:33:58;96103.09;;;3.27;92.72
3428;BME280;1727;42.624;23.406;2023-02-15T04:36:26;96105.56;;;3.30;92.90
3428;BME280;1727;42.624;23.406;2023-02-15T04:38:53;96110.69;;;3.32;92.54
3428;BME280;1727;42.624;23.406;2023-02-15T04:41:19;96114.25;;;3.29;92.67
3428;BME280;1727;42.624;23.406;2023-02-15T04:43:46;96121.97;;;3.31;92.57
3428;BME280;1727;42.624;23.406;2023-02-15T04:46:13;96115.84;;;3.33;92.44
3428;BME280;1727;42.624;23.406;2023-02-15T04:48:40;96122.88;;;3.30;92.83
3428;BME280;1727;42.624;23.406;2023-02-15T04:51:07;96117.81;;;3.27;93.12
3428;BME280;1727;42.624;23.406;2023-02-15T04:53:36;96112.84;;;3.21;93.81
3428;BME280;1727;42.624;23.406;2023-02-15T04:56:03;96115.22;;;3.27;93.75
3428;BME280;1727;42.624;23.406;2023-02-15T04:58:30;96118.66;;;3.27;93.67
3428;BME280;1727;42.624;23.406;2023-02-15T05:00:56;96134.34;;;3.24;93.98
3428;BME280;1727;42.624;23.406;2023-02-15T05:03:24;96124.50;;;3.32;94.07
3428;BME280;1727;42.624;23.406;2023-02-15T05:05:51;96124.34;;;3.37;93.38
3428;BME280;1727;42.624;23.406;2023-02-15T05:08:18;96132.84;;;3.40;92.47
3428;BME280;1727;42.624;23.406;2023-02-15T05:10:47;96126.09;;;3.36;92.70
3428;BME280;1727;42.624;23.406;2023-02-15T05:13:14;96116.00;;;3.29;92.72
3428;BME280;1727;42.624;23.406;2023-02-15T05:15:41;96135.50;;;3.39;93.38
3428;BME280;1727;42.624;23.406;2023-02-15T05:18:07;96125.41;;;3.31;93.64
3428;BME280;1727;42.624;23.406;2023-02-15T05:20:34;96136.63;;;3.32;93.68
3428;BME280;1727;42.624;23.406;2023-02-15T05:23:01;96134.03;;;3.32;93.19
3428;BME280;1727;42.624;23.406;2023-02-15T05:25:28;96133.16;;;3.33;93.87
3428;BME280;1727;42.624;23.406;2023-02-15T05:28:13;96151.19;;;3.36;94.05
3428;BME280;1727;42.624;23.406;2023-02-15T05:30:46;96145.31;;;3.31;92.73
3428;BME280;1727;42.624;23.406;2023-02-15T05:33:12;96154.84;;;3.30;93.01
3428;BME280;1727;42.624;23.406;2023-02-15T05:35:40;96154.19;;;3.25;93.42
3428;BME280;1727;42.624;23.406;2023-02-15T05:38:07;96154.00;;;3.30;94.03
3428;BME280;1727;42.624;23.406;2023-02-15T05:40:34;96147.97;;;3.29;93.86
3428;BME280;1727;42.624;23.406;2023-02-15T05:43:00;96157.50;;;3.29;94.28
3428;BME280;1727;42.624;23.406;2023-02-15T05:45:28;96154.50;;;3.39;95.28
3428;BME280;1727;42.624;23.406;2023-02-15T05:47:55;96159.66;;;3.41;95.11
3428;BME280;1727;42.624;23.406;2023-02-15T05:50:23;96160.28;;;3.48;92.80
3428;BME280;1727;42.624;23.406;2023-02-15T05:52:50;96155.94;;;3.48;93.59
3428;BME280;1727;42.624;23.406;2023-02-15T05:55:17;96152.44;;;3.49;94.65
3428;BME280;1727;42.624;23.406;2023-02-15T05:57:44;96167.00;;;3.53;94.54
3428;BME280;1727;42.624;23.406;2023-02-15T06:00:12;96156.50;;;3.56;95.70
3428;BME280;1727;42.624;23.406;2023-02-15T06:02:40;96163.50;;;3.54;95.13
3428;BME280;1727;42.624;23.406;2023-02-15T06:05:08;96157.41;;;3.55;93.67
3428;BME280;1727;42.624;23.406;2023-02-15T06:07:35;96155.31;;;3.65;96.74
3428;BME280;1727;42.624;23.406;2023-02-15T06:10:02;96155.41;;;3.62;93.36
3428;BME280;1727;42.624;23.406;2023-02-15T06:12:29;96171.78;;;3.64;92.16
3428;BME280;1727;42.624;23.406;2023-02-15T06:15:06;96157.72;;;3.69;96.63
3428;BME280;1727;42.624;23.406;2023-02-15T06:17:32;96161.47;;;3.62;92.57
3428;BME280;1727;42.624;23.406;2023-02-15T06:20:01;96166.53;;;3.65;93.69
3428;BME280;1727;42.624;23.406;2023-02-15T06:22:28;96164.78;;;3.66;92.01
3428;BME280;1727;42.624;23.406;2023-02-15T06:24:54;96165.00;;;3.83;96.93
3428;BME280;1727;42.624;23.406;2023-02-15T06:27:21;96171.88;;;3.84;94.84
3428;BME280;1727;42.624;23.406;2023-02-15T06:29:48;96173.75;;;3.81;92.63
3428;BME280;1727;42.624;23.406;2023-02-15T06:32:14;96169.47;;;3.80;91.92
3428;BME280;1727;42.624;23.406;2023-02-15T06:34:41;96167.88;;;3.76;90.46
3428;BME280;1727;42.624;23.406;2023-02-15T06:37:09;96171.03;;;3.84;92.53
3428;BME280;1727;42.624;23.406;2023-02-15T06:39:36;96173.53;;;3.87;90.56
3428;BME280;1727;42.624;23.406;2023-02-15T06:42:09;96168.22;;;3.90;93.97
3428;BME280;1727;42.624;23.406;2023-02-15T06:44:35;96165.78;;;3.85;93.27
3428;BME280;1727;42.624;23.406;2023-02-15T06:47:02;96172.72;;;3.85;91.45
3428;BME280;1727;42.624;23.406;2023-02-15T06:49:29;96160.59;;;3.85;92.21
3428;BME280;1727;42.624;23.406;2023-02-15T06:51:56;96155.59;;;3.81;91.99
3428;BME280;1727;42.624;23.406;2023-02-15T06:54:24;96160.28;;;3.93;92.32
3428;BME280;1727;42.624;23.406;2023-02-15T06:56:50;96153.59;;;3.87;91.11
3428;BME280;1727;42.624;23.406;2023-02-15T06:59:17;96159.28;;;3.97;92.35
3428;BME280;1727;42.624;23.406;2023-02-15T07:01:44;96155.28;;;3.88;89.25
3428;BME280;1727;42.624;23.406;2023-02-15T07:04:11;96159.41;;;3.94;90.28
3428;BME280;1727;42.624;23.406;2023-02-15T07:06:38;96155.09;;;3.93;90.96
3428;BME280;1727;42.624;23.406;2023-02-15T07:09:05;96166.22;;;3.96;91.89
3428;BME280;1727;42.624;23.406;2023-02-15T07:11:34;96170.97;;;4.09;92.90
3428;BME280;1727;42.624;23.406;2023-02-15T07:14:29;96164.00;;;4.09;89.94
3428;BME280;1727;42.624;23.406;2023-02-15T07:16:57;96171.06;;;4.06;88.81
3428;BME280;1727;42.624;23.406;2023-02-15T07:19:24;96174.59;;;4.03;88.13
3428;BME280;1727;42.624;23.406;2023-02-15T07:21:50;96180.50;;;4.08;88.15
3428;BME280;1727;42.624;23.406;2023-02-15T07:24:17;96180.56;;;4.07;87.76
3428;BME280;1727;42.624;23.406;2023-02-15T07:26:45;96178.88;;;4.06;88.51
3428;BME280;1727;42.624;23.406;2023-02-15T07:29:12;96178.75;;;4.09;88.34
3428;BME280;1727;42.624;23.406;2023-02-15T07:31:39;96171.81;;;4.09;87.73
3428;BME280;1727;42.624;23.406;2023-02-15T07:34:06;96170.31;;;4.02;87.08
3428;BME280;1727;42.624;23.406;2023-02-15T07:36:33;96161.81;;;3.98;88.11
3428;BME280;1727;42.624;23.406;2023-02-15T07:38:59;96158.97;;;4.04;91.32
3428;BME280;1727;42.624;23.406;2023-02-15T07:41:26;96167.66;;;4.03;87.96
3428;BME280;1727;42.624;23.406;2023-02-15T07:43:54;96155.00;;;4.18;89.10
3428;BME280;1727;42.624;23.406;2023-02-15T07:46:21;96166.13;;;4.21;87.75
3428;BME280;1727;42.624;23.406;2023-02-15T07:48:48;96160.13;;;4.19;86.43
3428;BME280;1727;42.624;23.406;2023-02-15T07:51:15;96159.53;;;4.34;88.14
3428;BME280;1727;42.624;23.406;2023-02-15T07:53:42;96163.44;;;4.45;86.75
3428;BME280;1727;42.624;23.406;2023-02-15T07:56:11;96167.34;;;4.55;84.97
3428;BME280;1727;42.624;23.406;2023-02-15T07:58:38;96159.84;;;4.69;84.92
3428;BME280;1727;42.624;23.406;2023-02-15T08:01:20;96168.50;;;4.70;83.04
3428;BME280;1727;42.624;23.406;2023-02-15T08:03:47;96163.81;;;4.78;83.37
3428;BME280;1727;42.624;23.406;2023-02-15T08:06:14;96165.13;;;4.88;82.73
3428;BME280;1727;42.624;23.406;2023-02-15T08:08:42;96165.44;;;4.80;82.74
3428;BME280;1727;42.624;23.406;2023-02-15T08:11:15;96174.09;;;4.81;82.19
3428;BME280;1727;42.624;23.406;2023-02-15T08:14:04;96173.53;;;4.94;81.52
3428;BME280;1727;42.624;23.406;2023-02-15T08:16:35;96172.16;;;5.06;82.15
3428;BME280;1727;42.624;23.406;2023-02-15T08:19:04;96177.63;;;5.20;82.92
3428;BME280;1727;42.624;23.406;2023-02-15T08:21:32;96179.69;;;5.12;81.17
3428;BME280;1727;42.624;23.406;2023-02-15T08:24:00;96176.09;;;5.15;81.81
3428;BME280;1727;42.624;23.406;2023-02-15T08:26:27;96181.19;;;5.18;81.10
3428;BME280;1727;42.624;23.406;2023-02-15T08:28:55;96172.94;;;5.28;80.75
3428;BME280;1727;42.624;23.406;2023-02-15T08:31:22;96172.59;;;5.36;83.76
3428;BME280;1727;42.624;23.406;2023-02-15T08:33:51;96181.09;;;5.40;81.36
3428;BME280;1727;42.624;23.406;2023-02-15T08:36:20;96172.22;;;5.44;77.96
3428;BME280;1727;42.624;23.406;2023-02-15T08:38:48;96173.94;;;5.45;79.76
3428;BME280;1727;42.624;23.406;2023-02-15T08:41:16;96177.13;;;5.51;79.04
3428;BME280;1727;42.624;23.406;2023-02-15T08:43:48;96179.16;;;5.64;79.49
3428;BME280;1727;42.624;23.406;2023-02-15T08:46:19;96168.84;;;5.81;77.21
3428;BME280;1727;42.624;23.406;2023-02-15T08:48:46;96178.03;;;5.89;76.89
3428;BME280;1727;42.624;23.406;2023-02-15T08:51:16;96181.59;;;5.87;76.13
3428;BME280;1727;42.624;23.406;2023-02-15T08:53:44;96176.38;;;5.87;80.54
3428;BME280;1727;42.624;23.406;2023-02-15T08:56:12;96165.81;;;5.71;78.64
3428;BME280;1727;42.624;23.406;2023-02-15T08:58:39;96179.13;;;5.84;77.48
3428;BME280;1727;42.624;23.406;2023-02-15T09:01:09;96180.69;;;5.88;79.00
3428;BME280;1727;42.624;23.406;2023-02-15T09:03:37;96173.00;;;5.85;77.44
3428;BME280;1727;42.624;23.406;2023-02-15T09:06:04;96173.31;;;5.98;77.38
3428;BME280;1727;42.624;23.406;2023-02-15T09:08:35;96179.66;;;5.92;76.37
3428;BME280;1727;42.624;23.406;2023-02-15T09:11:07;96176.69;;;6.00;76.63
3428;BME280;1727;42.624;23.406;2023-02-15T09:13:35;96164.88;;;6.11;75.63
3428;BME280;1727;42.624;23.406;2023-02-15T09:16:02;96168.00;;;6.37;82.29
3428;BME280;1727;42.624;23.406;2023-02-15T09:18:31;96172.91;;;6.43;72.90
3428;BME280;1727;42.624;23.406;2023-02-15T09:21:04;96162.81;;;6.54;73.06
3428;BME280;1727;42.624;23.406;2023-02-15T09:23:31;96162.03;;;6.52;72.55
3428;BME280;1727;42.624;23.406;2023-02-15T09:26:03;96171.09;;;6.62;73.12
3428;BME280;1727;42.624;23.406;2023-02-15T09:28:30;96172.34;;;6.72;72.47
3428;BME280;1727;42.624;23.406;2023-02-15T09:31:07;96173.66;;;6.81;72.10
3428;BME280;1727;42.624;23.406;2023-02-15T09:33:35;96163.28;;;6.79;71.65
3428;BME280;1727;42.624;23.406;2023-02-15T09:36:03;96175.88;;;6.89;71.22
3428;BME280;1727;42.624;23.406;2023-02-15T09:38:30;96169.97;;;7.02;70.57
3428;BME280;1727;42.624;23.406;2023-02-15T09:41:08;96170.81;;;7.03;69.95
3428;BME280;1727;42.624;23.406;2023-02-15T09:43:42;96169.75;;;7.07;69.80
3428;BME280;1727;42.624;23.406;2023-02-15T09:46:34;96167.44;;;7.01;70.39
3428;BME280;1727;42.624;23.406;2023-02-15T09:49:11;96167.97;;;7.07;71.95
3428;BME280;1727;42.624;23.406;2023-02-15T09:52:03;96166.19;;;6.91;70.98
3428;BME280;1727;42.624;23.406;2023-02-15T09:54:51;96169.41;;;6.61;71.44
3428;BME280;1727;42.624;23.406;2023-02-15T09:57:30;96159.56;;;6.49;72.18
3428;BME280;1727;42.624;23.406;2023-02-15T10:00:04;96159.72;;;6.46;71.31
3428;BME280;1727;42.624;23.406;2023-02-15T10:02:45;96162.59;;;6.22;71.80
3428;BME280;1727;42.624;23.406;2023-02-15T10:05:25;96154.63;;;6.07;73.26
3428;BME280;1727;42.624;23.406;2023-02-15T10:08:19;96158.75;;;6.30;74.53
3428;BME280;1727;42.624;23.406;2023-02-15T10:10:58;96156.28;;;6.45;73.28
3428;BME280;1727;42.624;23.406;2023-02-15T10:13:56;96156.66;;;6.55;73.52
3428;BME280;1727;42.624;23.406;2023-02-15T10:16:33;96153.16;;;6.73;74.12
3428;BME280;1727;42.624;23.406;2023-02-15T10:19:11;96150.72;;;6.70;71.94
3428;BME280;1727;42.624;23.406;2023-02-15T10:21:52;96155.13;;;6.51;72.68
3428;BME280;1727;42.624;23.406;2023-02-15T10:24:35;96155.06;;;6.52;72.82
3428;BME280;1727;42.624;23.406;2023-02-15T10:27:11;96148.63;;;6.60;71.28
3428;BME280;1727;42.624;23.406;2023-02-15T10:29:44;96148.88;;;6.72;71.69
3428;BME280;1727;42.624;23.406;2023-02-15T10:32:22;96150.94;;;6.83;70.74
3428;BME280;1727;42.624;23.406;2023-02-15T10:34:51;96140.25;;;6.88;72.15
3428;BME280;1727;42.624;23.406;2023-02-15T10:37:53;96142.03;;;6.87;71.58
3428;BME280;1727;42.624;23.406;2023-02-15T10:40:29;96142.56;;;6.94;70.69
3428;BME280;1727;42.624;23.406;2023-02-15T10:43:10;96136.38;;;6.96;72.20
3428;BME280;1727;42.624;23.406;2023-02-15T10:45:49;96126.63;;;6.82;69.61
3428;BME280;1727;42.624;23.406;2023-02-15T10:48:42;96139.13;;;6.76;72.36
3428;BME280;1727;42.624;23.406;2023-02-15T10:51:20;96129.22;;;6.82;73.36
3428;BME280;1727;42.624;23.406;2023-02-15T10:54:09;96127.78;;;6.77;72.08
3428;BME280;1727;42.624;23.406;2023-02-15T10:56:44;96117.63;;;6.88;71.44
3428;BME280;1727;42.624;23.406;2023-02-15T10:59:29;96122.16;;;7.02;70.02
3428;BME280;1727;42.624;23.406;2023-02-15T11:02:07;96117.53;;;7.07;69.92
3428;BME280;1727;42.624;23.406;2023-02-15T11:04:45;96118.63;;;7.03;69.26
3428;BME280;1727;42.624;23.406;2023-02-15T11:07:16;96117.47;;;6.91;69.81
3428;BME280;1727;42.624;23.406;2023-02-15T11:09:48;96122.25;;;6.83;70.97
3428;BME280;1727;42.624;23.406;2023-02-15T11:12:20;96117.25;;;6.78;70.05
3428;BME280;1727;42.624;23.406;2023-02-15T11:14:52;96108.34;;;6.82;70.96
3428;BME280;1727;42.624;23.406;2023-02-15T11:17:26;96110.56;;;6.90;72.04
3428;BME280;1727;42.624;23.406;2023-02-15T11:20:02;96114.66;;;6.78;70.62
3428;BME280;1727;42.624;23.406;2023-02-15T11:22:32;96118.19;;;6.77;70.98
3428;BME280;1727;42.624;23.406;2023-02-15T11:25:01;96121.31;;;6.84;70.80
3428;BME280;1727;42.624;23.406;2023-02-15T11:27:30;96110.50;;;6.74;69.98
3428;BME280;1727;42.624;23.406;2023-02-15T11:30:01;96102.53;;;6.77;70.71
3428;BME280;1727;42.624;23.406;2023-02-15T11:32:32;96107.75;;;6.77;72.20
3428;BME280;1727;42.624;23.406;2023-02-15T11:35:03;96117.63;;;6.88;71.49
3428;BME280;1727;42.624;23.406;2023-02-15T11:37:34;96108.13;;;6.87;70.11
3428;BME280;1727;42.624;23.406;2023-02-15T11:40:15;96106.50;;;6.84;69.84
3428;BME280;1727;42.624;23.406;2023-02-15T11:42:45;96103.28;;;6.79;69.71
3428;BME280;1727;42.624;23.406;2023-02-15T11:45:21;96108.44;;;6.81;69.92
3428;BME280;1727;42.624;23.406;2023-02-15T11:47:50;96097.00;;;6.83;70.86
3428;BME280;1727;42.624;23.406;2023-02-15T11:50:22;96094.84;;;6.92;73.54
3428;BME280;1727;42.624;23.406;2023-02-15T11:52:49;96088.41;;;6.99;71.27
3428;BME280;1727;42.624;23.406;2023-02-15T11:55:21;96081.53;;;7.13;70.53
3428;BME280;1727;42.624;23.406;2023-02-15T11:57:53;96086.03;;;7.27;69.75
3428;BME280;1727;42.624;23.406;2023-02-15T12:00:29;96074.84;;;7.41;68.83
3428;BME280;1727;42.624;23.406;2023-02-15T12:03:09;96074.25;;;7.52;68.44
3428;BME280;1727;42.624;23.406;2023-02-15T12:05:40;96066.38;;;7.53;67.82
3428;BME280;1727;42.624;23.406;2023-02-15T12:08:19;96061.16;;;7.53;67.09
3428;BME280;1727;42.624;23.406;2023-02-15T12:10:57;96067.59;;;7.46;67.11
3428;BME280;1727;42.624;23.406;2023-02-15T12:13:24;96070.63;;;7.38;69.25
3428;BME280;1727;42.624;23.406;2023-02-15T12:15:54;96067.59;;;7.46;68.62
3428;BME280;1727;42.624;23.406;2023-02-15T12:18:34;96059.97;;;7.59;68.88
3428;BME280;1727;42.624;23.406;2023-02-15T12:21:03;96061.22;;;7.67;67.36
3428;BME280;1727;42.624;23.406;2023-02-15T12:23:33;96050.34;;;7.75;66.49
3428;BME280;1727;42.624;23.406;2023-02-15T12:26:00;96050.19;;;7.94;69.35
3428;BME280;1727;42.624;23.406;2023-02-15T12:28:31;96037.03;;;7.95;66.57
3428;BME280;1727;42.624;23.406;2023-02-15T12:31:00;96051.47;;;8.32;71.15
3428;BME280;1727;42.624;23.406;2023-02-15T12:33:32;96050.09;;;8.11;66.54
3428;BME280;1727;42.624;23.406;2023-02-15T12:36:06;96049.00;;;7.99;66.31
3428;BME280;1727;42.624;23.406;2023-02-15T12:38:36;96041.59;;;7.92;66.98
3428;BME280;1727;42.624;23.406;2023-02-15T12:41:04;96045.72;;;7.80;66.75
3428;BME280;1727;42.624;23.406;2023-02-15T12:43:33;96026.09;;;7.73;67.64
3428;BME280;1727;42.624;23.406;2023-02-15T12:46:21;96028.19;;;7.66;67.66
3428;BME280;1727;42.624;23.406;2023-02-15T12:49:05;96027.97;;;7.55;68.19
3428;BME280;1727;42.624;23.406;2023-02-15T12:51:42;96025.09;;;7.60;67.64
3428;BME280;1727;42.624;23.406;2023-02-15T12:54:17;96021.38;;;7.64;67.98
3428;BME280;1727;42.624;23.406;2023-02-15T12:56:44;96018.84;;;7.62;67.55
3428;BME280;1727;42.624;23.406;2023-02-15T12:59:13;96021.53;;;7.76;68.09
3428;BME280;1727;42.624;23.406;2023-02-15T13:01:41;96016.22;;;7.78;67.64
3428;BME280;1727;42.624;23.406;2023-02-15T13:04:21;96017.16;;;7.93;67.90
3428;BME280;1727;42.624;23.406;2023-02-15T13:06:50;96019.13;;;8.03;67.15
3428;BME280;1727;42.624;23.406;2023-02-15T13:09:20;96023.44;;;8.04;66.33
3428;BME280;1727;42.624;23.406;2023-02-15T13:11:50;96017.09;;;8.08;66.45
3428;BME280;1727;42.624;23.406;2023-02-15T13:14:18;96011.81;;;8.10;66.92
3428;BME280;1727;42.624;23.406;2023-02-15T13:16:47;96016.13;;;8.11;66.22
3428;BME280;1727;42.624;23.406;2023-02-15T13:19:18;96014.25;;;8.13;65.81
3428;BME280;1727;42.624;23.406;2023-02-15T13:21:47;96010.09;;;8.09;66.02
3428;BME280;1727;42.624;23.406;2023-02-15T13:24:18;96006.50;;;8.12;67.50
3428;BME280;1727;42.624;23.406;2023-02-15T13:26:47;96008.00;;;8.16;68.17
3428;BME280;1727;42.624;23.406;2023-02-15T13:29:18;96009.50;;;8.20;66.34
3428;BME280;1727;42.624;23.406;2023-02-15T13:31:48;96007.16;;;8.15;66.49
3428;BME280;1727;42.624;23.406;2023-02-15T13:34:20;96011.97;;;8.07;66.08
3428;BME280;1727;42.624;23.406;2023-02-15T13:36:52;96007.84;;;8.03;68.47
3428;BME280;1727;42.624;23.406;2023-02-15T13:39:25;96017.09;;;8.08;67.08
3428;BME280;1727;42.624;23.406;2023-02-15T13:41:59;96007.94;;;8.01;67.42
3428;BME280;1727;42.624;23.406;2023-02-15T13:44:53;96015.78;;;8.01;67.73
3428;BME280;1727;42.624;23.406;2023-02-15T13:47:27;96011.41;;;8.62;89.22